Time;durP1;ratioP1;P1;durP2;ratioP2;P2;SDS_P1;SDS_P2;PMS_P1;PMS_P2;Temp;Humidity;BMP_temperature;BMP_pressure;BME280_temperature;BME280_humidity;BME280_pressure;Samples;Min_cycle;Max_cycle;Signal;HPM_P1;HPM_P2
2022/04/09 15:09:09;;;;;;;6.30;3.35;;;7.90;99.90;;;;;;493971;237;27453;-74
2022/04/09 15:11:11;;;;;;;6.95;3.05;;;7.80;99.90;;;;;;493922;241;27969;-74
2022/04/09 15:13:12;;;;;;;4.03;2.45;;;8.00;99.90;;;;;;494029;241;27520;-73
2022/04/09 15:15:13;;;;;;;3.53;2.50;;;7.70;99.90;;;;;;493937;241;27457;-74
2022/04/09 15:17:14;;;;;;;7.75;2.45;;;7.60;99.90;;;;;;493943;241;27498;-74
2022/04/09 15:19:16;;;;;;;6.28;2.40;;;7.50;99.90;;;;;;493968;241;27556;-74
2022/04/09 15:21:17;;;;;;;2.30;2.10;;;7.40;99.90;;;;;;493962;241;27496;-74
2022/04/09 15:23:18;;;;;;;3.78;2.50;;;7.60;99.90;;;;;;494014;240;27605;-76
2022/04/09 15:25:19;;;;;;;2.60;2.20;;;7.70;99.90;;;;;;493964;241;27919;-74
2022/04/09 15:27:21;;;;;;;2.08;1.87;;;7.60;99.90;;;;;;488952;236;27958;-74
2022/04/09 15:29:25;;;;;;;2.15;2.05;;;7.60;99.90;;;;;;485325;245;27490;-74
2022/04/09 15:31:24;;;;;;;2.17;1.83;;;7.60;99.90;;;;;;485284;242;27417;-74
2022/04/09 15:33:24;;;;;;;4.07;2.28;;;7.60;99.90;;;;;;485328;245;27563;-75
2022/04/09 15:35:26;;;;;;;2.00;1.90;;;7.50;99.90;;;;;;485340;245;27394;-74
2022/04/09 15:37:27;;;;;;;4.65;2.20;;;7.50;99.90;;;;;;485311;245;27441;-74
2022/04/09 15:39:28;;;;;;;2.47;2.28;;;7.20;99.90;;;;;;485362;245;27481;-74
2022/04/09 15:41:29;;;;;;;1.60;1.50;;;7.30;99.90;;;;;;485339;245;27877;-74
2022/04/09 15:43:31;;;;;;;3.33;1.83;;;7.40;99.90;;;;;;491130;236;27892;-74
2022/04/09 15:45:32;;;;;;;2.15;1.95;;;7.50;99.90;;;;;;493987;241;27513;-74
2022/04/09 15:47:33;;;;;;;2.40;2.00;;;7.50;99.90;;;;;;493992;241;28027;-74
2022/04/09 15:49:35;;;;;;;3.20;2.00;;;7.60;99.90;;;;;;494118;236;27489;-74
2022/04/09 15:51:36;;;;;;;3.10;2.35;;;7.60;99.90;;;;;;494049;237;27573;-74
2022/04/09 15:53:37;;;;;;;2.10;2.00;;;7.70;99.90;;;;;;494047;241;27606;-75
2022/04/09 15:55:44;;;;;;;1.90;1.80;;;7.70;99.90;;;;;;494066;241;27458;-75
2022/04/09 15:57:45;;;;;;;2.65;2.12;;;7.70;99.90;;;;;;494006;241;27596;-74
2022/04/09 15:59:47;;;;;;;3.67;2.12;;;7.80;99.90;;;;;;494057;241;27459;-75
2022/04/09 16:01:48;;;;;;;2.80;1.95;;;7.90;99.90;;;;;;494046;241;27952;-75
2022/04/09 16:03:49;;;;;;;1.90;1.67;;;7.80;99.90;;;;;;494015;241;28011;-74
2022/04/09 16:05:50;;;;;;;2.05;1.85;;;7.90;99.90;;;;;;494034;241;27494;-74
2022/04/09 16:07:52;;;;;;;1.83;1.73;;;7.90;99.90;;;;;;494029;241;27594;-74
2022/04/09 16:09:53;;;;;;;2.37;1.92;;;7.80;99.90;;;;;;494034;241;27499;-74
2022/04/09 16:11:54;;;;;;;3.75;1.80;;;7.80;99.90;;;;;;494034;241;27499;-74
2022/04/09 16:13:56;;;;;;;2.08;1.87;;;7.80;99.90;;;;;;494030;241;27516;-77
2022/04/09 16:15:57;;;;;;;1.95;1.85;;;7.80;99.90;;;;;;494011;241;27471;-77
2022/04/09 16:17:58;;;;;;;3.60;2.17;;;7.80;99.90;;;;;;494030;241;28091;-74
2022/04/09 16:19:59;;;;;;;1.92;1.83;;;7.80;99.90;;;;;;494001;241;28664;-74
2022/04/09 16:22:00;;;;;;;1.73;1.62;;;7.80;99.90;;;;;;494038;241;27463;-75
2022/04/09 16:24:02;;;;;;;1.73;1.62;;;7.80;99.90;;;;;;494001;239;27505;-76
2022/04/09 16:26:03;;;;;;;3.40;1.85;;;7.80;99.90;;;;;;494011;241;27512;-74
2022/04/09 16:28:04;;;;;;;2.97;1.92;;;7.90;99.90;;;;;;494029;241;27534;-73
2022/04/09 16:30:05;;;;;;;2.08;1.90;;;7.90;99.90;;;;;;494004;241;28001;-79
2022/04/09 16:32:07;;;;;;;1.83;1.73;;;7.90;99.90;;;;;;494043;241;27927;-74
2022/04/09 16:34:08;;;;;;;2.97;1.90;;;7.90;99.90;;;;;;493982;241;28027;-76
2022/04/09 16:36:09;;;;;;;2.25;1.60;;;7.80;99.90;;;;;;494006;241;27481;-74
2022/04/09 16:38:10;;;;;;;2.87;1.80;;;7.90;99.90;;;;;;493988;241;27497;-77
2022/04/09 16:40:12;;;;;;;1.87;1.77;;;7.90;99.90;;;;;;494020;241;27586;-78
2022/04/09 16:42:13;;;;;;;2.10;2.00;;;7.90;99.90;;;;;;494067;241;27540;-77
2022/04/09 16:44:14;;;;;;;5.15;2.47;;;7.90;99.90;;;;;;494039;241;27529;-76
2022/04/09 16:46:16;;;;;;;2.50;2.25;;;7.80;99.90;;;;;;493988;241;28015;-75
2022/04/09 16:48:17;;;;;;;5.43;2.42;;;7.60;99.90;;;;;;494023;241;27524;-75
2022/04/09 16:50:19;;;;;;;1.90;1.80;;;7.60;99.90;;;;;;494015;241;27502;-76
2022/04/09 16:52:19;;;;;;;10.90;2.53;;;7.50;99.90;;;;;;493982;241;27553;-74
2022/04/09 16:54:20;;;;;;;2.85;2.30;;;7.50;99.90;;;;;;494035;241;27509;-75
2022/04/09 16:56:24;;;;;;;3.62;1.90;;;7.40;99.90;;;;;;493966;241;27462;-74
2022/04/09 16:58:23;;;;;;;2.03;1.87;;;7.40;99.90;;;;;;493827;241;28014;-75
2022/04/09 17:00:24;;;;;;;2.28;1.90;;;7.30;99.90;;;;;;494004;241;28059;-74
2022/04/09 17:02:27;;;;;;;2.40;2.20;;;7.10;99.90;;;;;;494037;241;27545;-74
2022/04/09 17:04:27;;;;;;;4.77;2.20;;;7.00;99.90;;;;;;493915;241;27499;-75
2022/04/09 17:06:28;;;;;;;2.73;2.40;;;6.60;99.90;;;;;;494022;241;28804;-75
2022/04/09 17:08:29;;;;;;;3.12;2.30;;;6.60;99.90;;;;;;494040;241;28836;-75
2022/04/09 17:10:31;;;;;;;5.63;2.43;;;6.50;99.90;;;;;;494012;241;27563;-75
2022/04/09 17:12:32;;;;;;;2.30;2.08;;;6.40;99.90;;;;;;494045;241;27919;-74
2022/04/09 17:14:33;;;;;;;4.03;2.05;;;6.30;99.90;;;;;;494043;241;28081;-75
2022/04/09 17:16:34;;;;;;;2.47;2.25;;;6.20;99.90;;;;;;493993;241;28066;-74
2022/04/09 17:18:36;;;;;;;2.55;1.90;;;6.10;99.90;;;;;;494040;241;27510;-74
2022/04/09 17:20:37;;;;;;;4.40;2.50;;;6.10;99.90;;;;;;494070;241;27476;-74
2022/04/09 17:22:38;;;;;;;3.20;2.30;;;6.10;99.90;;;;;;494084;241;28808;-74
2022/04/09 17:24:39;;;;;;;3.15;2.35;;;6.00;99.90;;;;;;494080;241;27894;-77
2022/04/09 17:26:41;;;;;;;2.10;2.00;;;5.90;99.90;;;;;;494020;241;27526;-74
2022/04/09 17:28:42;;;;;;;2.97;2.35;;;5.80;99.90;;;;;;494061;241;28079;-76
2022/04/09 17:30:43;;;;;;;5.50;2.37;;;5.70;99.90;;;;;;494069;241;28188;-76
2022/04/09 17:32:44;;;;;;;4.75;2.75;;;5.70;99.90;;;;;;494012;241;27473;-76
2022/04/09 17:34:46;;;;;;;3.20;2.33;;;5.70;99.90;;;;;;494029;241;27502;-76
2022/04/09 17:36:47;;;;;;;2.35;2.15;;;5.60;99.90;;;;;;494020;241;27473;-75
2022/04/09 17:38:48;;;;;;;2.65;2.45;;;5.50;99.90;;;;;;494019;241;27513;-76
2022/04/09 17:40:49;;;;;;;2.35;2.10;;;5.40;99.90;;;;;;494041;241;27510;-77
2022/04/09 17:42:51;;;;;;;4.10;2.30;;;5.30;99.90;;;;;;494041;241;27923;-75
2022/04/09 17:44:53;;;;;;;2.28;2.08;;;5.20;99.90;;;;;;494015;241;28115;-76
2022/04/09 17:46:53;;;;;;;2.50;2.30;;;5.10;99.90;;;;;;493962;241;27496;-75
2022/04/09 17:48:54;;;;;;;2.83;2.10;;;5.00;99.90;;;;;;493973;241;27501;-76
2022/04/09 17:50:56;;;;;;;2.40;1.98;;;5.00;99.90;;;;;;494057;241;27568;-76
2022/04/09 17:52:57;;;;;;;2.33;2.12;;;4.90;99.90;;;;;;494026;241;27516;-74
2022/04/09 17:54:58;;;;;;;2.20;2.00;;;4.90;99.90;;;;;;494021;241;27552;-75
2022/04/09 17:56:59;;;;;;;1.98;1.87;;;4.90;99.90;;;;;;494000;241;27461;-75
2022/04/09 17:59:01;;;;;;;1.90;1.80;;;4.90;99.90;;;;;;493957;241;28055;-75
2022/04/09 18:01:02;;;;;;;2.67;1.73;;;4.80;99.90;;;;;;494014;241;28063;-77
2022/04/09 18:03:03;;;;;;;2.10;2.00;;;4.80;99.90;;;;;;494014;241;28109;-74
2022/04/09 18:05:04;;;;;;;1.90;1.80;;;4.80;99.90;;;;;;494017;241;27522;-75
2022/04/09 18:07:06;;;;;;;2.20;2.10;;;4.70;99.90;;;;;;493996;237;27473;-75
2022/04/09 18:09:07;;;;;;;3.15;2.10;;;4.70;99.90;;;;;;493981;241;27584;-75
2022/04/09 18:11:08;;;;;;;2.22;2.03;;;4.70;99.90;;;;;;494042;241;27547;-77
2022/04/09 18:13:10;;;;;;;2.85;2.47;;;4.60;99.90;;;;;;493992;241;27493;-75
2022/04/09 18:15:11;;;;;;;2.10;1.90;;;4.60;99.90;;;;;;493971;241;27524;-75
2022/04/09 18:17:12;;;;;;;3.53;2.25;;;4.60;99.90;;;;;;493985;237;27475;-75
2022/04/09 18:19:13;;;;;;;3.47;2.20;;;4.60;99.90;;;;;;493997;240;28182;-75
2022/04/09 18:21:14;;;;;;;3.00;2.25;;;4.60;99.90;;;;;;494019;241;27991;-75
2022/04/09 18:23:16;;;;;;;4.12;2.80;;;4.70;99.90;;;;;;493993;241;27931;-74
2022/04/09 18:25:17;;;;;;;3.22;2.62;;;4.60;99.90;;;;;;493967;241;27581;-74
2022/04/09 18:27:20;;;;;;;2.58;2.37;;;4.60;99.90;;;;;;483715;237;27634;-75
2022/04/09 18:29:19;;;;;;;3.20;2.45;;;4.60;99.90;;;;;;473199;251;27534;-75
2022/04/09 18:31:21;;;;;;;5.25;2.72;;;4.60;99.90;;;;;;472337;251;27634;-76
2022/04/09 18:33:22;;;;;;;4.25;2.30;;;4.60;99.90;;;;;;473303;251;27570;-75
2022/04/09 18:35:25;;;;;;;2.70;2.50;;;4.60;99.90;;;;;;472340;251;27559;-76
2022/04/09 18:37:25;;;;;;;2.70;2.35;;;4.50;99.90;;;;;;473216;251;27575;-74
2022/04/09 18:39:26;;;;;;;2.70;2.50;;;4.50;99.90;;;;;;472329;251;27543;-75
2022/04/09 18:41:27;;;;;;;2.30;2.10;;;4.40;99.90;;;;;;473304;251;28132;-75
2022/04/09 18:43:29;;;;;;;2.72;2.53;;;4.40;99.90;;;;;;472331;251;27991;-74
2022/04/09 18:45:30;;;;;;;2.28;2.08;;;4.30;99.90;;;;;;473252;251;28035;-74
2022/04/09 18:47:31;;;;;;;3.67;2.47;;;4.30;99.90;;;;;;472343;252;27534;-74
2022/04/09 18:49:32;;;;;;;2.78;2.50;;;4.20;99.90;;;;;;473301;251;27555;-75
2022/04/09 18:51:33;;;;;;;2.60;2.28;;;4.20;99.90;;;;;;472360;251;27459;-75
2022/04/09 18:53:35;;;;;;;2.60;2.40;;;4.20;99.90;;;;;;473310;251;27573;-75
2022/04/09 18:55:36;;;;;;;2.05;1.90;;;4.20;99.90;;;;;;472333;252;27542;-74
2022/04/09 18:57:37;;;;;;;5.20;2.60;;;4.10;99.90;;;;;;473281;251;27589;-75
2022/04/09 18:59:38;;;;;;;2.55;2.35;;;4.10;99.90;;;;;;472355;252;27498;-74
2022/04/09 19:01:40;;;;;;;2.60;2.40;;;4.00;99.90;;;;;;473257;251;27541;-75
2022/04/09 19:03:41;;;;;;;2.67;2.20;;;3.90;99.90;;;;;;472360;252;27504;-75
2022/04/09 19:05:42;;;;;;;3.10;2.53;;;3.90;99.90;;;;;;473300;251;27701;-75
2022/04/09 19:07:43;;;;;;;2.40;2.20;;;3.80;99.90;;;;;;472319;251;28723;-75
2022/04/09 19:09:45;;;;;;;3.25;2.20;;;3.70;99.90;;;;;;473319;251;27969;-74
2022/04/09 19:11:46;;;;;;;2.45;2.25;;;3.70;99.90;;;;;;472316;251;28173;-75
2022/04/09 19:13:47;;;;;;;2.33;2.12;;;3.60;99.90;;;;;;473300;251;27527;-75
2022/04/09 19:15:48;;;;;;;2.85;2.22;;;3.60;99.90;;;;;;472315;251;27542;-75
2022/04/09 19:17:50;;;;;;;2.67;2.20;;;3.60;99.90;;;;;;473276;251;27621;-75
2022/04/09 19:19:53;;;;;;;2.42;2.22;;;3.50;99.90;;;;;;472339;251;27416;-75
2022/04/09 19:21:52;;;;;;;2.83;2.45;;;3.40;99.90;;;;;;473176;251;27551;-74
2022/04/09 19:23:54;;;;;;;2.65;2.45;;;3.40;99.90;;;;;;472392;252;27444;-74
2022/04/09 19:25:55;;;;;;;1.90;1.80;;;3.40;99.90;;;;;;473276;251;27534;-74
2022/04/09 19:27:56;;;;;;;2.20;2.10;;;3.30;99.90;;;;;;472284;250;28082;-74
2022/04/09 19:29:57;;;;;;;2.87;2.67;;;3.30;99.90;;;;;;473193;251;27873;-75
2022/04/09 19:31:58;;;;;;;2.33;2.10;;;3.30;99.90;;;;;;472212;252;28115;-75
2022/04/09 19:34:00;;;;;;;2.15;1.90;;;3.30;99.90;;;;;;473140;251;29085;-75
2022/04/09 19:36:01;;;;;;;1.92;1.83;;;3.30;99.90;;;;;;472192;252;27556;-75
2022/04/09 19:38:02;;;;;;;2.40;2.20;;;3.20;99.90;;;;;;473127;251;27435;-74
2022/04/09 19:40:03;;;;;;;2.30;2.10;;;3.20;99.90;;;;;;472209;252;27529;-74
2022/04/09 19:42:05;;;;;;;2.22;2.05;;;3.20;99.90;;;;;;473160;250;27549;-76
2022/04/09 19:44:06;;;;;;;2.20;2.10;;;3.10;99.90;;;;;;472170;252;27652;-75
2022/04/09 19:46:07;;;;;;;2.10;2.00;;;3.10;99.90;;;;;;473142;251;27459;-75
2022/04/09 19:48:08;;;;;;;2.20;2.10;;;3.00;99.90;;;;;;472196;252;27672;-74
2022/04/09 19:50:10;;;;;;;2.92;1.80;;;3.10;99.90;;;;;;473177;251;27493;-74
2022/04/09 19:52:11;;;;;;;2.50;2.30;;;3.00;99.90;;;;;;472224;252;27487;-74
2022/04/09 19:54:12;;;;;;;2.25;2.10;;;3.00;99.90;;;;;;473170;251;27545;-74
2022/04/09 19:58:19;;;;;;;1.90;1.80;;;3.00;99.90;;;;;;483828;241;27476;-74
2022/04/09 20:00:20;;;;;;;1.92;1.77;;;3.10;99.90;;;;;;483547;246;27378;-73
2022/04/09 20:02:23;;;;;;;2.97;1.87;;;3.10;99.90;;;;;;483536;246;27428;-74
2022/04/09 20:04:23;;;;;;;2.35;2.25;;;3.10;99.90;;;;;;483484;246;27431;-74
2022/04/09 20:06:24;;;;;;;1.92;1.83;;;3.00;99.90;;;;;;483536;246;27401;-73
2022/04/09 20:08:25;;;;;;;2.42;2.22;;;3.00;99.90;;;;;;483531;246;27517;-73
2022/04/09 20:10:27;;;;;;;2.35;2.08;;;3.00;99.90;;;;;;483507;246;27450;-72
2022/04/09 20:12:28;;;;;;;2.03;1.92;;;2.90;99.90;;;;;;483504;246;27435;-75
2022/04/09 20:14:31;;;;;;;2.45;2.25;;;2.90;99.90;;;;;;483515;246;27435;-75
2022/04/09 20:16:31;;;;;;;2.70;2.45;;;2.90;99.90;;;;;;483368;246;27789;-72
2022/04/09 20:18:32;;;;;;;2.80;2.50;;;2.80;99.90;;;;;;478720;248;27984;-73
2022/04/09 20:20:33;;;;;;;3.85;2.85;;;2.60;99.90;;;;;;483505;246;27860;-72
2022/04/09 20:22:35;;;;;;;4.03;2.53;;;2.60;99.90;;;;;;483507;246;29093;-73
2022/04/09 20:24:35;;;;;;;3.62;2.95;;;2.50;99.90;;;;;;483524;246;27446;-76
2022/04/09 20:26:37;;;;;;;4.12;2.92;;;2.50;99.90;;;;;;483516;246;27425;-73
2022/04/09 20:28:38;;;;;;;3.20;2.90;;;2.40;99.90;;;;;;478738;248;27446;-75
2022/04/09 20:30:40;;;;;;;3.62;3.33;;;2.40;99.90;;;;;;483480;246;27474;-73
2022/04/09 20:32:40;;;;;;;3.10;2.90;;;2.40;99.90;;;;;;483448;246;27516;-73
2022/04/09 20:34:42;;;;;;;3.80;3.40;;;2.40;99.90;;;;;;483544;246;27481;-74
2022/04/09 20:36:43;;;;;;;3.87;3.58;;;2.30;99.90;;;;;;483542;246;27427;-74
2022/04/09 20:38:44;;;;;;;3.62;3.17;;;2.20;99.90;;;;;;483441;246;27532;-74
2022/04/09 20:40:49;;;;;;;4.18;3.80;;;2.30;99.90;;;;;;483539;246;27406;-73
2022/04/09 20:42:47;;;;;;;5.00;4.07;;;2.30;99.90;;;;;;483329;246;27456;-73
2022/04/09 20:44:48;;;;;;;4.10;3.70;;;2.30;99.90;;;;;;483539;246;27995;-73
2022/04/09 20:46:49;;;;;;;5.75;4.40;;;2.20;99.90;;;;;;485505;241;27832;-74
2022/04/09 20:48:51;;;;;;;5.70;4.70;;;2.20;99.90;;;;;;478152;249;28044;-73
2022/04/09 20:50:52;;;;;;;5.97;3.85;;;2.20;99.90;;;;;;493408;239;27859;-73
2022/04/09 20:52:53;;;;;;;5.05;4.37;;;2.20;99.90;;;;;;493371;241;27399;-73
2022/04/09 20:54:54;;;;;;;5.07;3.90;;;2.20;99.90;;;;;;493407;241;27536;-75
2022/04/09 20:56:55;;;;;;;4.25;3.90;;;2.20;99.90;;;;;;493382;241;27370;-73
2022/04/09 20:58:57;;;;;;;4.70;3.60;;;2.20;99.90;;;;;;493297;241;27398;-73
2022/04/09 21:00:58;;;;;;;6.53;4.55;;;2.20;99.90;;;;;;493373;241;27374;-73
2022/04/09 21:02:59;;;;;;;6.55;3.72;;;2.10;99.90;;;;;;493368;241;27429;-73
2022/04/09 21:05:00;;;;;;;5.15;4.60;;;2.10;99.90;;;;;;493363;241;27414;-73
2022/04/09 21:07:02;;;;;;;7.32;4.18;;;2.10;99.90;;;;;;493347;241;27832;-73
2022/04/09 21:09:03;;;;;;;4.97;4.05;;;2.10;99.90;;;;;;493367;241;27979;-74
2022/04/09 21:11:04;;;;;;;4.50;3.80;;;2.10;99.90;;;;;;493355;241;28057;-73
2022/04/09 21:13:05;;;;;;;5.32;4.10;;;2.00;99.90;;;;;;493365;241;27903;-72
2022/04/09 21:15:07;;;;;;;5.03;3.83;;;2.10;99.90;;;;;;493428;241;27520;-73
2022/04/09 21:17:08;;;;;;;3.75;3.40;;;2.10;99.90;;;;;;493409;241;27441;-72
2022/04/09 21:19:09;;;;;;;4.97;4.37;;;2.00;99.90;;;;;;493353;241;27429;-73
2022/04/09 21:21:10;;;;;;;4.25;3.85;;;1.90;99.90;;;;;;493355;241;27465;-72
2022/04/09 21:23:12;;;;;;;5.05;4.00;;;2.00;99.90;;;;;;493323;241;27433;-72
2022/04/09 21:25:13;;;;;;;5.35;4.50;;;2.00;99.90;;;;;;493377;241;27413;-75
2022/04/09 21:27:15;;;;;;;5.78;3.60;;;2.00;99.90;;;;;;493393;241;27390;-72
2022/04/09 21:29:18;;;;;;;4.10;3.45;;;2.00;99.90;;;;;;493377;241;27416;-73
2022/04/09 21:31:17;;;;;;;5.53;3.47;;;2.00;99.90;;;;;;493217;241;27410;-73
2022/04/09 21:33:18;;;;;;;5.95;3.65;;;2.10;99.90;;;;;;493371;241;27438;-74
2022/04/09 21:35:19;;;;;;;3.50;3.20;;;2.10;99.90;;;;;;493388;241;27899;-75
2022/04/09 21:37:20;;;;;;;3.80;3.15;;;2.10;99.90;;;;;;493412;241;27828;-73
2022/04/09 21:39:22;;;;;;;4.45;3.22;;;2.10;99.90;;;;;;493394;241;27997;-73
2022/04/09 21:41:23;;;;;;;3.55;3.25;;;2.10;99.90;;;;;;493396;241;27844;-72
2022/04/09 21:43:24;;;;;;;3.25;3.05;;;2.00;99.90;;;;;;493389;241;27406;-73
2022/04/09 21:45:25;;;;;;;4.20;3.75;;;2.00;99.90;;;;;;493415;241;27472;-74
2022/04/09 21:47:27;;;;;;;3.12;2.90;;;1.90;99.90;;;;;;493362;241;27405;-73
2022/04/09 21:49:28;;;;;;;3.85;3.45;;;1.90;99.90;;;;;;493394;241;27441;-73
2022/04/09 21:51:29;;;;;;;3.80;3.45;;;1.80;99.90;;;;;;493388;241;27462;-73
2022/04/09 21:53:30;;;;;;;4.18;3.35;;;1.80;99.90;;;;;;493310;241;27497;-73
2022/04/09 21:55:32;;;;;;;3.17;2.97;;;1.80;99.90;;;;;;493389;241;27434;-75
2022/04/09 21:57:33;;;;;;;4.95;3.42;;;1.80;99.90;;;;;;493382;241;27370;-73
2022/04/09 21:59:34;;;;;;;3.65;3.35;;;1.70;99.90;;;;;;493378;241;27520;-73
2022/04/09 22:01:35;;;;;;;4.93;3.45;;;1.70;99.90;;;;;;493385;241;27832;-73
2022/04/09 22:03:37;;;;;;;4.22;3.83;;;1.70;99.90;;;;;;493376;241;27885;-73
2022/04/09 22:05:38;;;;;;;4.37;3.33;;;1.70;99.90;;;;;;493407;241;27887;-73
2022/04/09 22:07:39;;;;;;;4.07;3.37;;;1.70;99.90;;;;;;493400;241;27977;-73
2022/04/09 22:09:40;;;;;;;3.03;2.70;;;1.80;99.90;;;;;;493380;241;27979;-74
2022/04/09 22:11:42;;;;;;;3.40;3.10;;;1.80;99.90;;;;;;493392;241;27362;-73
2022/04/09 22:13:43;;;;;;;5.25;3.55;;;1.70;99.90;;;;;;493363;241;27384;-72
2022/04/09 22:15:44;;;;;;;4.10;3.70;;;1.80;99.90;;;;;;493363;241;27425;-75
2022/04/09 22:17:45;;;;;;;4.35;3.00;;;1.70;99.90;;;;;;493401;241;27362;-73
2022/04/09 22:19:47;;;;;;;3.85;3.53;;;1.70;99.90;;;;;;493383;241;27434;-73
2022/04/09 22:21:48;;;;;;;3.97;3.33;;;1.80;99.90;;;;;;493409;241;27443;-73
2022/04/09 22:23:49;;;;;;;6.82;4.80;;;1.70;99.90;;;;;;493354;241;27565;-73
2022/04/09 22:25:50;;;;;;;3.60;3.30;;;1.70;99.90;;;;;;493392;241;27405;-73
2022/04/09 22:27:52;;;;;;;5.78;3.53;;;1.80;99.90;;;;;;493388;241;27553;-73
2022/04/09 22:29:53;;;;;;;5.62;3.87;;;1.70;99.90;;;;;;493373;241;28000;-73
2022/04/09 22:31:54;;;;;;;3.75;3.45;;;1.80;99.90;;;;;;493399;241;27860;-72
2022/04/09 22:33:55;;;;;;;4.20;3.20;;;1.80;99.90;;;;;;493409;241;27928;-73
2022/04/09 22:35:57;;;;;;;3.50;3.20;;;1.70;99.90;;;;;;493421;241;27911;-75
2022/04/09 22:37:58;;;;;;;3.83;3.50;;;1.70;99.90;;;;;;493411;241;27469;-73
2022/04/09 22:39:59;;;;;;;6.47;4.43;;;1.60;99.90;;;;;;493407;241;27488;-73
2022/04/09 22:42:00;;;;;;;6.32;5.03;;;1.60;99.90;;;;;;493424;241;27446;-73
2022/04/09 22:44:02;;;;;;;4.43;3.95;;;1.50;99.90;;;;;;493425;241;27932;-73
2022/04/09 22:46:03;;;;;;;4.70;4.30;;;1.40;99.90;;;;;;493417;241;27931;-74
2022/04/09 22:48:04;;;;;;;5.45;4.90;;;1.30;99.90;;;;;;493409;241;27830;-72
2022/04/09 22:50:05;;;;;;;5.20;4.75;;;1.30;99.90;;;;;;493326;241;27993;-73
2022/04/09 22:52:07;;;;;;;5.18;4.68;;;1.30;99.90;;;;;;493375;241;27500;-72
2022/04/09 22:54:08;;;;;;;5.00;4.60;;;1.30;99.90;;;;;;493388;241;27494;-73
2022/04/09 22:58:17;;;;;;;5.12;4.62;;;1.20;99.90;;;;;;463828;241;27559;-73
2022/04/09 23:00:18;;;;;;;5.15;4.60;;;1.20;99.90;;;;;;465025;256;27982;-75
2022/04/09 23:02:19;;;;;;;5.22;4.28;;;1.10;99.90;;;;;;465158;255;28067;-73
2022/04/09 23:04:20;;;;;;;6.20;4.97;;;1.10;99.90;;;;;;455525;261;28000;-72
2022/04/09 23:06:22;;;;;;;5.18;4.68;;;1.10;99.90;;;;;;459785;257;28008;-73
2022/04/09 23:08:22;;;;;;;5.55;4.90;;;1.10;99.90;;;;;;459792;257;27483;-72
2022/04/09 23:10:24;;;;;;;5.45;4.95;;;1.10;99.90;;;;;;459815;257;27483;-74
2022/04/09 23:12:25;;;;;;;5.43;4.65;;;1.10;99.90;;;;;;459838;257;27445;-73
2022/04/09 23:14:26;;;;;;;6.37;5.05;;;1.10;99.90;;;;;;459847;257;27484;-73
2022/04/09 23:16:27;;;;;;;5.18;4.60;;;1.00;99.90;;;;;;459838;257;27445;-73
2022/04/09 23:18:30;;;;;;;5.82;5.20;;;1.00;99.90;;;;;;459873;257;27503;-73
2022/04/09 23:20:30;;;;;;;7.55;5.62;;;1.00;99.90;;;;;;459821;258;27838;-78
2022/04/09 23:22:31;;;;;;;6.60;4.80;;;1.00;99.90;;;;;;459881;257;27460;-72
2022/04/09 23:24:32;;;;;;;7.68;5.05;;;1.00;99.90;;;;;;459893;257;27492;-73
2022/04/09 23:26:34;;;;;;;7.57;4.93;;;0.90;99.90;;;;;;459863;257;27457;-72
2022/04/09 23:28:35;;;;;;;7.55;6.15;;;0.90;99.90;;;;;;459866;257;27955;-73
2022/04/09 23:30:36;;;;;;;6.22;5.12;;;0.90;99.90;;;;;;459828;257;28706;-73
2022/04/09 23:32:37;;;;;;;6.60;5.05;;;0.80;99.90;;;;;;459875;257;27918;-73
2022/04/09 23:34:39;;;;;;;6.25;4.82;;;0.90;99.90;;;;;;459872;257;28019;-73
2022/04/09 23:36:40;;;;;;;6.85;5.12;;;0.90;99.90;;;;;;459834;257;27464;-73
2022/04/09 23:38:41;;;;;;;6.75;5.68;;;0.90;99.90;;;;;;459839;257;27477;-73
2022/04/09 23:40:42;;;;;;;6.40;5.80;;;0.80;99.90;;;;;;459851;257;27456;-72
2022/04/09 23:42:44;;;;;;;6.65;5.95;;;0.80;99.90;;;;;;459868;257;27463;-74
2022/04/09 23:44:45;;;;;;;8.57;5.30;;;0.80;99.90;;;;;;459877;257;27549;-74
2022/04/09 23:46:46;;;;;;;7.22;5.22;;;0.80;99.90;;;;;;459855;257;27482;-73
2022/04/09 23:48:47;;;;;;;6.57;5.50;;;0.80;99.90;;;;;;459822;257;27516;-73
2022/04/09 23:50:49;;;;;;;9.00;6.05;;;0.80;99.90;;;;;;459827;257;27483;-72
2022/04/09 23:52:50;;;;;;;6.75;5.80;;;0.70;99.90;;;;;;459840;257;27603;-72
2022/04/09 23:54:51;;;;;;;7.05;5.75;;;0.70;99.90;;;;;;459859;257;27496;-73
2022/04/09 23:56:52;;;;;;;7.28;5.32;;;0.60;99.90;;;;;;459855;257;27996;-72
2022/04/09 23:58:54;;;;;;;6.85;5.12;;;0.60;99.90;;;;;;459883;257;27958;-72
